createdAt,value
2023-04-28T00:01:42.162Z,32.67
2023-04-28T00:04:24.383Z,29.67
2023-04-28T00:06:59.718Z,22.67
2023-04-28T00:09:42.820Z,30.33
2023-04-28T00:12:30.069Z,28.00
2023-04-28T00:15:18.067Z,23.67
2023-04-28T00:17:45.102Z,18.00
2023-04-28T00:20:12.604Z,18.75
2023-04-28T00:22:39.531Z,32.33
2023-04-28T00:25:07.220Z,26.33
2023-04-28T00:27:34.928Z,31.67
2023-04-28T00:30:02.369Z,28.33
2023-04-28T00:32:29.730Z,38.00
2023-04-28T00:34:57.895Z,33.00
2023-04-28T00:37:24.796Z,19.33
2023-04-28T00:39:58.132Z,33.00
2023-04-28T00:42:25.081Z,28.00
2023-04-28T00:44:52.051Z,34.33
2023-04-28T00:47:19.792Z,42.00
2023-04-28T00:49:49.770Z,38.00
2023-04-28T00:52:16.699Z,37.00
2023-04-28T00:54:43.851Z,42.33
2023-04-28T00:57:13.084Z,51.33
2023-04-28T00:59:40.119Z,50.33
2023-04-28T01:02:07.888Z,46.33
2023-04-28T01:04:36.047Z,42.00
2023-04-28T01:07:17.056Z,44.00
2023-04-28T01:09:55.100Z,43.00
2023-04-28T01:12:46.288Z,53.00
2023-04-28T01:15:36.582Z,48.33
2023-04-28T01:18:20.389Z,47.67
2023-04-28T01:20:47.458Z,39.67
2023-04-28T01:23:16.312Z,6.00
2023-04-28T01:25:44.235Z,31.33
2023-04-28T01:28:11.940Z,28.67
2023-04-28T01:30:38.866Z,25.00
2023-04-28T01:33:05.968Z,25.33
2023-04-28T01:35:32.923Z,15.00
2023-04-28T01:37:59.927Z,19.67
2023-04-28T01:40:26.888Z,35.00
2023-04-28T01:42:53.853Z,27.00
2023-04-28T01:45:20.872Z,39.00
2023-04-28T01:47:47.830Z,38.00
2023-04-28T01:50:14.900Z,26.00
2023-04-28T01:52:41.817Z,26.00
2023-04-28T01:55:09.050Z,22.33
2023-04-28T01:57:36.682Z,19.00
2023-04-28T02:00:05.253Z,15.00
2023-04-28T02:02:32.301Z,9.00
2023-04-28T02:04:59.445Z,9.75
2023-04-28T02:07:26.583Z,11.25
2023-04-28T02:09:53.531Z,10.00
2023-04-28T02:12:20.431Z,9.25
2023-04-28T02:14:47.432Z,5.75
2023-04-28T02:17:14.316Z,9.00
2023-04-28T02:19:41.222Z,14.00
2023-04-28T02:22:08.326Z,26.00
2023-04-28T02:24:37.293Z,31.67
2023-04-28T02:27:05.931Z,31.00
2023-04-28T02:29:32.883Z,27.33
2023-04-28T02:31:59.889Z,27.00
2023-04-28T02:34:27.050Z,35.00
2023-04-28T02:36:53.974Z,33.67
2023-04-28T02:39:22.834Z,32.67
2023-04-28T02:41:49.730Z,26.33
2023-04-28T02:44:16.803Z,24.00
2023-04-28T02:46:43.951Z,23.00
2023-04-28T02:49:11.015Z,18.67
2023-04-28T02:51:37.960Z,15.67
2023-04-28T02:54:04.931Z,10.50
2023-04-28T02:56:31.988Z,5.25
2023-04-28T02:58:58.887Z,6.25
2023-04-28T03:01:26.333Z,9.00
2023-04-28T03:03:53.415Z,5.25
2023-04-28T03:06:20.567Z,5.50
2023-04-28T03:08:47.494Z,9.00
2023-04-28T03:11:14.413Z,6.00
2023-04-28T03:13:41.717Z,5.75
2023-04-28T03:16:08.759Z,6.00
2023-04-28T03:18:36.243Z,6.00
2023-04-28T03:21:03.194Z,3.50
2023-04-28T03:23:30.112Z,1.50
2023-04-28T03:25:57.034Z,8.50
2023-04-28T03:28:23.978Z,9.00
2023-04-28T03:30:50.874Z,6.25
2023-04-28T03:33:17.803Z,5.00
2023-04-28T03:35:44.753Z,6.00
2023-04-28T03:38:11.873Z,8.00
2023-04-28T03:40:38.819Z,10.00
2023-04-28T03:43:05.827Z,9.00
2023-04-28T03:45:33.109Z,9.00
2023-04-28T03:48:00.057Z,6.25
2023-04-28T03:50:27.118Z,9.50
2023-04-28T03:52:54.065Z,10.25
2023-04-28T03:55:21.003Z,10.00
2023-04-28T03:57:48.145Z,6.50
2023-04-28T04:00:15.298Z,7.00
2023-04-28T04:02:42.840Z,5.00
2023-04-28T04:05:10.315Z,10.00
2023-04-28T04:07:37.497Z,6.50
2023-04-28T04:10:04.873Z,13.33
2023-04-28T04:12:32.219Z,9.00
2023-04-28T04:14:59.158Z,14.00
2023-04-28T04:17:26.056Z,11.75
2023-04-28T04:19:52.988Z,8.25
2023-04-28T04:22:19.868Z,11.75
2023-04-28T04:24:47.187Z,10.50
2023-04-28T04:27:14.177Z,10.75
2023-04-28T04:29:41.185Z,9.75
2023-04-28T04:32:08.131Z,7.00
2023-04-28T04:34:35.045Z,9.25
2023-04-28T04:37:01.961Z,13.00
2023-04-28T04:39:28.867Z,15.75
2023-04-28T04:41:55.838Z,18.50
2023-04-28T04:44:22.762Z,20.75
2023-04-28T04:46:49.749Z,17.25
2023-04-28T04:49:16.662Z,16.00
2023-04-28T04:51:43.612Z,21.00
2023-04-28T04:54:10.536Z,22.25
2023-04-28T04:56:37.686Z,38.00
2023-04-28T04:59:04.678Z,44.00
2023-04-28T05:01:31.596Z,43.00
2023-04-28T05:03:58.752Z,43.67
2023-04-28T05:06:25.891Z,37.00
2023-04-28T05:08:52.846Z,30.50
2023-04-28T05:11:19.798Z,35.00
2023-04-28T05:13:46.724Z,34.25
2023-04-28T05:16:13.705Z,21.75
2023-04-28T05:18:40.810Z,43.75
2023-04-28T05:21:07.780Z,45.25
2023-04-28T05:23:34.691Z,47.25
2023-04-28T05:26:01.652Z,43.75
2023-04-28T05:28:28.606Z,48.00
2023-04-28T05:30:55.522Z,37.50
2023-04-28T05:33:24.263Z,39.75
2023-04-28T05:35:52.280Z,38.50
2023-04-28T05:38:20.197Z,35.25
2023-04-28T05:40:48.570Z,36.00
2023-04-28T05:43:15.493Z,30.25
2023-04-28T05:45:42.538Z,32.25
2023-04-28T05:48:09.468Z,25.00
2023-04-28T05:50:38.817Z,25.25
2023-04-28T05:53:06.082Z,25.25
2023-04-28T05:55:34.093Z,32.50
2023-04-28T05:58:01.049Z,27.00
2023-04-28T06:00:28.049Z,23.25
2023-04-28T06:02:55.267Z,25.75
2023-04-28T06:05:23.811Z,25.00
2023-04-28T06:07:53.071Z,18.00
2023-04-28T06:10:22.997Z,19.75
2023-04-28T06:12:49.908Z,17.00
2023-04-28T06:15:16.997Z,18.75
2023-04-28T06:17:43.953Z,21.75
2023-04-28T06:20:14.069Z,18.25
2023-04-28T06:22:41.701Z,16.00
2023-04-28T06:25:09.150Z,17.75
2023-04-28T06:27:36.052Z,18.75
2023-04-28T06:30:03.034Z,19.00
2023-04-28T06:32:29.964Z,13.25
2023-04-28T06:34:58.378Z,10.00
2023-04-28T06:37:25.506Z,9.00
2023-04-28T06:39:52.453Z,12.00
2023-04-28T06:42:20.615Z,13.25
2023-04-28T06:44:47.551Z,14.00
2023-04-28T06:47:14.512Z,19.00
2023-04-28T06:49:44.109Z,11.75
2023-04-28T06:52:11.168Z,15.00
2023-04-28T06:54:38.736Z,13.25
2023-04-28T06:57:05.872Z,10.25
2023-04-28T06:59:32.830Z,10.00
2023-04-28T07:01:59.872Z,7.75
2023-04-28T07:04:27.558Z,8.50
2023-04-28T07:06:54.750Z,8.50
2023-04-28T07:09:21.795Z,9.25
2023-04-28T07:11:48.773Z,10.00
2023-04-28T07:14:16.110Z,7.50
2023-04-28T07:16:43.677Z,7.00
2023-04-28T07:19:10.668Z,6.25
2023-04-28T07:21:37.566Z,5.25
2023-04-28T07:24:04.607Z,4.50
2023-04-28T07:26:33.796Z,5.00
2023-04-28T07:29:00.891Z,4.75
2023-04-28T07:31:27.965Z,3.75
2023-04-28T07:33:55.712Z,2.75
2023-04-28T07:36:23.021Z,3.75
2023-04-28T07:38:50.154Z,3.00
2023-04-28T07:41:17.836Z,3.25
2023-04-28T07:43:44.969Z,3.00
2023-04-28T07:46:13.092Z,3.75
2023-04-28T07:48:41.650Z,3.00
2023-04-28T07:51:08.590Z,4.25
2023-04-28T07:53:36.715Z,3.00
2023-04-28T07:56:03.980Z,2.00
2023-04-28T07:58:31.584Z,6.75
2023-04-28T08:00:58.500Z,5.00
2023-04-28T08:03:25.572Z,5.00
2023-04-28T08:05:52.739Z,4.75
2023-04-28T08:08:19.764Z,3.00
2023-04-28T08:10:46.689Z,4.75
2023-04-28T08:13:13.735Z,3.75
2023-04-28T08:15:40.699Z,6.00
2023-04-28T08:18:07.891Z,2.00
2023-04-28T08:20:35.005Z,3.25
2023-04-28T08:23:01.970Z,2.00
2023-04-28T08:25:28.979Z,2.25
2023-04-28T08:27:57.523Z,3.00
2023-04-28T08:30:24.966Z,2.50
2023-04-28T08:32:52.114Z,1.75
2023-04-28T08:35:19.546Z,2.00
2023-04-28T08:37:49.613Z,1.50
2023-04-28T08:40:16.710Z,1.00
2023-04-28T08:42:46.481Z,1.00
2023-04-28T08:45:14.852Z,2.00
2023-04-28T08:47:46.210Z,1.25
2023-04-28T08:50:14.831Z,2.00
2023-04-28T08:52:43.059Z,6.25
2023-04-28T08:55:12.981Z,6.00
2023-04-28T08:57:49.659Z,3.50
2023-04-28T09:00:16.816Z,5.00
2023-04-28T09:02:44.034Z,3.00
2023-04-28T09:05:13.130Z,2.50
2023-04-28T09:07:41.534Z,1.75
2023-04-28T09:10:26.763Z,2.00
2023-04-28T09:12:56.002Z,3.25
2023-04-28T09:15:32.634Z,4.25
2023-04-28T09:18:02.762Z,4.00
2023-04-28T09:20:31.927Z,2.00
2023-04-28T09:23:14.579Z,2.00
2023-04-28T09:25:41.637Z,2.00
2023-04-28T09:28:22.277Z,3.00
2023-04-28T09:30:49.262Z,3.00
2023-04-28T09:35:45.638Z,3.00
2023-04-28T09:38:13.066Z,2.50
2023-04-28T09:41:00.015Z,3.00
2023-04-28T09:43:28.467Z,1.50
2023-04-28T09:45:57.278Z,5.25
2023-04-28T09:48:35.506Z,2.50
2023-04-28T09:51:08.157Z,5.00
2023-04-28T09:53:38.400Z,7.75
2023-04-28T09:56:05.649Z,9.25
2023-04-28T09:58:35.582Z,6.00
2023-04-28T10:01:03.622Z,7.50
2023-04-28T10:03:31.740Z,3.75
2023-04-28T10:06:00.121Z,5.75
2023-04-28T10:08:28.247Z,5.75
2023-04-28T10:10:57.065Z,5.00
2023-04-28T10:13:24.783Z,3.00
2023-04-28T10:15:55.840Z,5.00
2023-04-28T10:18:24.482Z,5.00
2023-04-28T10:20:58.956Z,5.00
2023-04-28T10:23:42.705Z,2.00
2023-04-28T10:26:14.604Z,4.00
2023-04-28T10:28:49.051Z,6.75
2023-04-28T10:31:18.237Z,4.50
2023-04-28T10:33:45.455Z,3.00
2023-04-28T10:36:36.261Z,5.00
2023-04-28T10:39:12.773Z,5.50
2023-04-28T10:41:39.803Z,3.00
2023-04-28T10:44:28.413Z,5.25
2023-04-28T10:47:07.102Z,4.00
2023-04-28T10:49:58.421Z,4.00
2023-04-28T10:52:51.717Z,3.67
2023-04-28T10:55:36.739Z,8.00
2023-04-28T10:58:29.857Z,7.00
2023-04-28T11:01:22.882Z,7.00
2023-04-28T11:04:00.466Z,13.00
2023-04-28T11:06:42.041Z,10.75
2023-04-28T11:09:15.085Z,8.25
2023-04-28T11:12:00.536Z,9.25
2023-04-28T11:14:30.348Z,6.00
2023-04-28T11:17:03.335Z,4.00
2023-04-28T11:19:38.090Z,6.00
2023-04-28T11:22:11.963Z,4.00
2023-04-28T11:24:38.873Z,3.00
2023-04-28T11:27:06.190Z,3.00
2023-04-28T11:29:38.538Z,7.50
2023-04-28T11:32:10.347Z,10.00
2023-04-28T11:34:38.189Z,8.25
2023-04-28T11:37:07.381Z,6.00
2023-04-28T11:39:35.071Z,9.50
2023-04-28T11:42:03.611Z,7.00
2023-04-28T11:44:31.990Z,5.00
2023-04-28T11:47:01.792Z,8.75
2023-04-28T11:49:31.181Z,8.25
2023-04-28T11:52:00.572Z,3.00
2023-04-28T11:54:29.230Z,4.00
2023-04-28T11:56:57.906Z,5.50
2023-04-28T11:59:31.349Z,4.00
2023-04-28T12:02:07.051Z,5.00
2023-04-28T12:04:39.042Z,5.00
2023-04-28T12:07:16.670Z,5.00
2023-04-28T12:09:49.039Z,6.33
2023-04-28T12:12:39.993Z,8.25
2023-04-28T12:15:17.510Z,5.75
2023-04-28T12:17:45.927Z,4.00
2023-04-28T12:20:39.331Z,5.67
2023-04-28T12:23:08.119Z,3.00
2023-04-28T12:25:44.667Z,4.00
2023-04-28T12:28:11.693Z,4.67
2023-04-28T12:30:42.739Z,3.75
2023-04-28T12:33:26.188Z,3.00
2023-04-28T12:35:57.483Z,4.00
2023-04-28T12:38:25.133Z,6.67
2023-04-28T12:40:52.803Z,4.00
2023-04-28T12:43:19.882Z,8.50
2023-04-28T12:45:46.941Z,6.50
2023-04-28T12:48:13.886Z,5.00
2023-04-28T12:50:40.783Z,4.67
2023-04-28T12:53:07.720Z,4.33
2023-04-28T12:55:34.839Z,4.33
2023-04-28T12:58:01.791Z,3.00
2023-04-28T13:00:28.714Z,3.00
2023-04-28T13:02:55.844Z,4.67
2023-04-28T13:05:23.579Z,4.00
2023-04-28T13:07:51.160Z,4.00
2023-04-28T13:10:19.198Z,4.00
2023-04-28T13:12:46.073Z,8.00
2023-04-28T13:15:13.072Z,7.67
2023-04-28T13:17:40.321Z,7.00
2023-04-28T13:20:07.904Z,4.00
2023-04-28T13:22:34.873Z,5.67
2023-04-28T13:25:01.818Z,7.33
2023-04-28T13:27:30.668Z,5.00
2023-04-28T13:29:59.454Z,5.33
2023-04-28T13:32:28.300Z,3.00
2023-04-28T13:34:55.713Z,5.67
2023-04-28T13:37:22.590Z,6.33
2023-04-28T13:39:49.518Z,5.00
2023-04-28T13:42:16.648Z,5.33
2023-04-28T13:44:43.758Z,4.67
2023-04-28T13:47:11.152Z,4.00
2023-04-28T13:49:39.817Z,7.67
2023-04-28T13:52:06.910Z,6.00
2023-04-28T13:54:33.766Z,7.00
2023-04-28T13:57:01.482Z,8.00
2023-04-28T13:59:28.484Z,5.00
2023-04-28T14:01:55.373Z,3.00
2023-04-28T14:04:23.318Z,5.00
2023-04-28T14:06:50.801Z,6.00
2023-04-28T14:09:17.736Z,5.00
2023-04-28T14:11:44.863Z,4.00
2023-04-28T14:14:12.295Z,4.00
2023-04-28T14:16:39.353Z,5.00
2023-04-28T14:19:07.385Z,3.67
2023-04-28T14:21:35.393Z,4.33
2023-04-28T14:24:02.398Z,2.00
2023-04-28T14:26:29.281Z,4.00
2023-04-28T14:28:56.289Z,4.00
2023-04-28T14:31:23.295Z,6.00
2023-04-28T14:33:50.322Z,5.00
2023-04-28T14:36:17.295Z,5.00
2023-04-28T14:38:44.744Z,3.00
2023-04-28T14:41:11.827Z,3.00
2023-04-28T14:43:38.768Z,2.33
2023-04-28T14:46:06.048Z,2.00
2023-04-28T14:48:34.409Z,5.00
2023-04-28T14:51:01.817Z,2.33
2023-04-28T14:53:28.886Z,4.33
2023-04-28T14:56:02.019Z,4.67
2023-04-28T14:58:37.980Z,3.00
2023-04-28T15:01:05.086Z,3.00
2023-04-28T15:03:32.828Z,2.33
2023-04-28T15:06:00.742Z,4.00
2023-04-28T15:08:29.456Z,6.00
2023-04-28T15:10:56.993Z,7.33
2023-04-28T15:13:25.436Z,8.00
2023-04-28T15:15:52.390Z,4.67
2023-04-28T15:18:19.568Z,3.00
2023-04-28T15:20:46.836Z,3.00
2023-04-28T15:23:14.480Z,2.00
2023-04-28T15:25:41.425Z,1.67
2023-04-28T15:28:09.182Z,2.00
2023-04-28T15:30:36.621Z,2.00
2023-04-28T15:33:04.459Z,2.00
2023-04-28T15:35:32.860Z,1.33
2023-04-28T15:38:00.382Z,1.67
2023-04-28T15:40:27.358Z,1.33
2023-04-28T15:42:54.261Z,1.00
2023-04-28T15:45:22.084Z,2.67
2023-04-28T15:47:51.050Z,2.00
2023-04-28T15:50:19.757Z,1.33
2023-04-28T15:52:50.158Z,1.00
2023-04-28T15:55:19.845Z,1.00
2023-04-28T15:57:48.362Z,1.00
2023-04-28T16:00:16.648Z,0.00
2023-04-28T16:02:44.128Z,0.67
2023-04-28T16:05:11.598Z,0.00
2023-04-28T16:07:41.245Z,1.00
2023-04-28T16:10:13.488Z,1.00
2023-04-28T16:12:42.055Z,1.00
2023-04-28T16:15:11.425Z,1.00
2023-04-28T16:17:39.601Z,2.00
2023-04-28T16:20:08.474Z,2.00
2023-04-28T16:22:36.234Z,1.00
2023-04-28T16:25:06.830Z,2.67
2023-04-28T16:27:34.134Z,0.00
2023-04-28T16:30:01.263Z,1.00
2023-04-28T16:32:29.072Z,2.00
2023-04-28T16:34:58.873Z,2.00
2023-04-28T16:37:26.407Z,3.00
2023-04-28T16:39:53.357Z,1.00
2023-04-28T16:42:23.204Z,1.00
2023-04-28T16:44:52.777Z,0.67
2023-04-28T16:47:20.548Z,0.00
2023-04-28T16:49:48.312Z,0.00
2023-04-28T16:52:15.799Z,0.33
2023-04-28T16:54:42.689Z,1.25
2023-04-28T16:57:09.709Z,0.00
2023-04-28T16:59:37.589Z,1.00
2023-04-28T17:02:04.932Z,1.00
2023-04-28T17:04:32.219Z,0.00
2023-04-28T17:06:59.783Z,0.00
2023-04-28T17:09:27.748Z,0.00
2023-04-28T17:11:55.147Z,0.00
2023-04-28T17:14:22.347Z,0.00
2023-04-28T17:16:49.410Z,0.33
2023-04-28T17:19:17.008Z,0.00
2023-04-28T17:21:44.003Z,1.00
2023-04-28T17:24:10.964Z,0.75
2023-04-28T17:26:37.932Z,0.00
2023-04-28T17:29:05.132Z,0.75
2023-04-28T17:31:32.238Z,0.00
2023-04-28T17:34:01.912Z,0.00
2023-04-28T17:36:29.125Z,1.00
2023-04-28T17:38:56.297Z,0.75
2023-04-28T17:41:23.443Z,1.00
2023-04-28T17:43:54.024Z,7.25
2023-04-28T17:46:22.296Z,8.75
2023-04-28T17:48:49.699Z,7.25
2023-04-28T17:51:16.667Z,6.75
2023-04-28T17:53:43.610Z,6.00
2023-04-28T17:56:11.097Z,7.00
2023-04-28T17:58:38.043Z,9.50
2023-04-28T18:01:06.792Z,7.00
2023-04-28T18:03:41.600Z,6.00
2023-04-28T18:06:09.063Z,6.00
2023-04-28T18:08:37.022Z,7.00
2023-04-28T18:11:04.262Z,6.00
2023-04-28T18:13:31.782Z,5.00
2023-04-28T18:15:58.723Z,6.75
2023-04-28T18:18:26.326Z,5.75
2023-04-28T18:20:59.429Z,4.25
2023-04-28T18:23:27.526Z,4.00
2023-04-28T18:25:54.486Z,4.75
2023-04-28T18:28:21.529Z,4.25
2023-04-28T18:30:48.532Z,3.00
2023-04-28T18:33:17.219Z,7.00
2023-04-28T18:35:44.507Z,6.00
2023-04-28T18:38:11.375Z,5.00
2023-04-28T18:40:39.369Z,9.50
2023-04-28T18:43:07.493Z,11.75
2023-04-28T18:45:41.417Z,6.25
2023-04-28T18:48:09.730Z,3.00
2023-04-28T18:50:37.188Z,2.00
2023-04-28T18:53:05.215Z,4.75
2023-04-28T18:55:35.105Z,3.00
2023-04-28T18:58:02.383Z,3.25
2023-04-28T19:00:29.616Z,6.00
2023-04-28T19:02:56.904Z,6.50
2023-04-28T19:05:24.202Z,5.75
2023-04-28T19:07:51.219Z,4.75
2023-04-28T19:10:18.290Z,5.00
2023-04-28T19:12:45.226Z,3.50
2023-04-28T19:15:12.257Z,8.00
2023-04-28T19:17:39.651Z,4.75
2023-04-28T19:20:07.399Z,3.75
2023-04-28T19:22:40.388Z,4.00
2023-04-28T19:25:08.010Z,5.25
2023-04-28T19:27:37.206Z,3.75
2023-04-28T19:30:06.531Z,5.25
2023-04-28T19:32:33.707Z,2.00
2023-04-28T19:35:00.956Z,4.00
2023-04-28T19:37:28.130Z,5.50
2023-04-28T19:39:55.402Z,3.75
2023-04-28T19:42:22.447Z,4.00
2023-04-28T19:44:55.685Z,4.00
2023-04-28T19:47:24.209Z,3.25
2023-04-28T19:49:52.252Z,3.75
2023-04-28T19:52:21.172Z,2.50
2023-04-28T19:54:49.454Z,3.00
2023-04-28T19:57:16.949Z,2.00
2023-04-28T19:59:43.954Z,2.25
2023-04-28T20:02:11.154Z,1.50
2023-04-28T20:04:38.721Z,1.00
2023-04-28T20:07:06.677Z,2.75
2023-04-28T20:09:38.106Z,2.00
2023-04-28T20:12:07.819Z,1.50
2023-04-28T20:14:35.529Z,0.50
2023-04-28T20:17:04.017Z,1.50
2023-04-28T20:19:31.805Z,2.25
2023-04-28T20:21:58.832Z,2.00
2023-04-28T20:24:26.142Z,3.00
2023-04-28T20:26:54.802Z,2.75
2023-04-28T20:29:21.982Z,3.00
2023-04-28T20:31:49.006Z,2.00
2023-04-28T20:34:15.949Z,6.25
2023-04-28T20:36:43.244Z,5.00
2023-04-28T20:39:12.458Z,3.00
2023-04-28T20:41:41.147Z,5.00
2023-04-28T20:44:08.751Z,10.00
2023-04-28T20:46:36.350Z,10.00
2023-04-28T20:49:04.609Z,8.00
2023-04-28T20:51:34.351Z,7.75
2023-04-28T20:54:01.638Z,7.00
2023-04-28T20:56:28.866Z,5.25
2023-04-28T20:58:56.057Z,3.75
2023-04-28T21:01:23.286Z,4.00
2023-04-28T21:03:50.636Z,2.50
2023-04-28T21:06:17.840Z,3.50
2023-04-28T21:08:45.385Z,3.25
2023-04-28T21:11:16.433Z,2.00
2023-04-28T21:13:44.739Z,2.00
2023-04-28T21:16:19.403Z,2.00
2023-04-28T21:18:48.038Z,1.00
2023-04-28T21:21:15.104Z,2.00
2023-04-28T21:23:42.970Z,2.00
2023-04-28T21:26:10.591Z,0.50
2023-04-28T21:28:37.948Z,1.00
2023-04-28T21:31:05.277Z,2.00
2023-04-28T21:33:32.489Z,1.00
2023-04-28T21:36:03.808Z,2.00
2023-04-28T21:38:30.748Z,2.75
2023-04-28T21:40:57.665Z,6.25
2023-04-28T21:43:24.645Z,6.25
2023-04-28T21:45:52.442Z,6.00
2023-04-28T21:48:19.363Z,10.50
2023-04-28T21:50:47.540Z,11.00
2023-04-28T21:53:14.438Z,8.25
2023-04-28T21:55:41.757Z,13.50
2023-04-28T21:58:08.696Z,10.00
2023-04-28T22:00:43.427Z,11.25
2023-04-28T22:03:11.214Z,19.00
2023-04-28T22:05:40.493Z,13.00
2023-04-28T22:08:07.940Z,14.75
2023-04-28T22:10:35.489Z,11.50
2023-04-28T22:13:03.317Z,12.75
2023-04-28T22:15:30.272Z,16.00
2023-04-28T22:17:58.443Z,17.50
2023-04-28T22:20:25.524Z,10.00
2023-04-28T22:22:54.237Z,11.50
2023-04-28T22:25:21.569Z,12.00
2023-04-28T22:27:48.640Z,12.50
2023-04-28T22:30:15.961Z,12.00
2023-04-28T22:32:47.383Z,11.00
2023-04-28T22:35:14.833Z,10.00
2023-04-28T22:37:41.808Z,10.25
2023-04-28T22:40:09.544Z,16.00
2023-04-28T22:42:37.557Z,6.50
2023-04-28T22:45:06.803Z,8.75
2023-04-28T22:47:34.794Z,11.00
2023-04-28T22:50:06.020Z,11.50
2023-04-28T22:52:33.934Z,6.00
2023-04-28T22:55:01.180Z,8.00
2023-04-28T22:57:28.366Z,6.75
2023-04-28T22:59:55.573Z,9.00
2023-04-28T23:02:23.454Z,9.50
2023-04-28T23:04:51.305Z,5.00
2023-04-28T23:07:18.363Z,7.50
2023-04-28T23:09:45.401Z,3.00
2023-04-28T23:12:12.377Z,3.00
2023-04-28T23:14:39.327Z,2.75
2023-04-28T23:17:06.361Z,3.00
2023-04-28T23:19:33.364Z,1.75
2023-04-28T23:22:00.295Z,2.00
2023-04-28T23:24:27.581Z,2.75
2023-04-28T23:26:54.546Z,2.25
2023-04-28T23:29:21.639Z,2.00
2023-04-28T23:31:52.717Z,1.50
2023-04-28T23:34:19.732Z,2.25
2023-04-28T23:36:46.770Z,1.00
2023-04-28T23:39:13.784Z,1.00
2023-04-28T23:41:41.265Z,2.00
2023-04-28T23:44:08.582Z,0.75
2023-04-28T23:46:35.519Z,1.75
2023-04-28T23:49:02.465Z,1.00
2023-04-28T23:51:29.415Z,3.00
2023-04-28T23:53:56.440Z,8.00
2023-04-28T23:56:23.749Z,10.50
2023-04-28T23:58:51.380Z,13.50
